Maximiano — PWPM — position and weather

sailwx.info

Track history (hours):
 
Tides and Currents Weather Stations Pressure Air Temp Water Temp Dewpoint Dewpoint Depression Visibility Wind Speed Wind Dir Waves Ship Positions

Oceanographic research ship Maximiano (Brazil)

Last reported at 2019-Sep-21 02:31 UTC. Time now 2019-Sep-21 05:19 UTC.
Position S 22°54' W 043°10'.

Type: Military. MMSI: 710481000.

Date/timePositionNaut miles runAvg speedWind from/ knotsBaromVisibWave heightAir tempDewpointWater temp
2019-Sep-21 02:31S 22°54' W 043°10'0 0.0
2019-Sep-21 02:31S 22°54' W 043°10'0 0.0
2019-Sep-21 02:01S 22°54' W 043°10'0 0.9
2019-Sep-21 01:31S 22°53' W 043°10'2 3.2
2019-Sep-21 01:01S 22°55' W 043°09'2 4.5
2019-Sep-21 00:31S 22°57' W 043°08'2 3.2
2019-Sep-21 00:00S 22°58' W 043°08'2 4.1
2019-Sep-20 23:31S 22°60' W 043°06'2 4.4
2019-Sep-20 23:01S 23°01' W 043°04'2 4.5
2019-Sep-20 22:31S 23°03' W 043°02'2 4.3
2019-Sep-20 22:01S 23°04' W 043°01'2 4.2
2019-Sep-20 21:27S 23°06' W 042°59'2 3.1
2019-Sep-20 20:57S 23°07' W 042°59'0 0.7
2019-Sep-20 20:30S 23°07' W 042°59'1 0.7
2019-Sep-20 19:42S 23°08' W 042°59'1 1.3
2019-Sep-20 19:15S 23°08' W 042°60'1 3.9
2019-Sep-20 19:00S 23°09' W 042°59'1 2.0
2019-Sep-20 18:30S 23°09' W 043°00'1 1.1
2019-Sep-20 18:00S 23°09' W 043°01'1 1.4
2019-Sep-20 17:29S 23°09' W 043°02'1 1.1
2019-Sep-20 17:00S 23°09' W 043°02'2 4.8
2019-Sep-20 16:30S 23°07' W 043°03'4 8.6
2019-Sep-20 16:00S 23°02' W 043°04'5 9.5
2019-Sep-20 15:30S 22°59' W 043°07'4 8.7
2019-Sep-20 15:00S 22°55' W 043°09'1 1.4
2019-Sep-20 14:30S 22°54' W 043°09'0 0.2
2019-Sep-20 14:00S 22°54' W 043°09'0 0.1
2019-Sep-20 13:30S 22°54' W 043°09'0 0.1
2019-Sep-20 13:00S 22°54' W 043°09'1 1.2
2019-Sep-20 12:30S 22°54' W 043°09'0 0.5
2019-Sep-20 12:00S 22°54' W 043°09'1 1.6
2019-Sep-20 11:30S 22°53' W 043°09'0 0.0
2019-Sep-20 11:00S 22°53' W 043°09'0 0.0
2019-Sep-20 10:30S 22°53' W 043°09'0 0.0
2019-Sep-20 10:00S 22°53' W 043°09'0 0.0
2019-Sep-20 09:30S 22°53' W 043°09'0 0.0
2019-Sep-20 09:00S 22°53' W 043°09'0 0.1
2019-Sep-20 08:30S 22°53' W 043°09'0 0.0
2019-Sep-20 08:00S 22°53' W 043°09'0 0.0
2019-Sep-20 07:30S 22°53' W 043°09'0 0.0
2019-Sep-20 07:00S 22°53' W 043°09'0 0.0
2019-Sep-20 06:30S 22°53' W 043°09'0 0.0
2019-Sep-20 06:00S 22°53' W 043°09'0 0.0
2019-Sep-20 05:27S 22°53' W 043°09'0 0.0
2019-Sep-20 05:00S 22°53' W 043°09'0 0.1
2019-Sep-20 04:30S 22°53' W 043°09'0 0.0
2019-Sep-20 04:00S 22°53' W 043°09'0 0.2
2019-Sep-20 03:30S 22°53' W 043°09'1 1.5
2019-Sep-20 03:00S 22°54' W 043°10'0 0.3
2019-Sep-20 02:30S 22°53' W 043°10'1 1.8
2019-Sep-20 02:00S 22°54' W 043°09'4 8.9
2019-Sep-20 01:30S 22°58' W 043°07'510.5
2019-Sep-20 01:00S 23°03' W 043°05'2 4.6
2019-Sep-20 00:30S 23°05' W 043°03'1 2.4
2019-Sep-20 00:00S 23°05' W 043°04'4 8.3
2019-Sep-19 23:30S 23°01' W 043°07'4 7.3
2019-Sep-19 23:00S 22°58' W 043°08'3 6.6
2019-Sep-19 22:30S 22°54' W 043°09'2 3.0
2019-Sep-19 22:00S 22°54' W 043°10'0 0.2
2019-Sep-19 21:29S 22°54' W 043°10'0 0.0
2019-Sep-19 20:59S 22°54' W 043°10'0 0.0
2019-Sep-19 20:29S 22°54' W 043°10'0 0.0
2019-Sep-19 19:59S 22°54' W 043°10'0 0.0
2019-Sep-19 19:29S 22°54' W 043°10'0 0.0
2019-Sep-19 18:59S 22°54' W 043°10'0 0.0
2019-Sep-19 18:29S 22°54' W 043°10'0 0.0
2019-Sep-19 17:59S 22°54' W 043°10'0 0.0
2019-Sep-19 17:29S 22°54' W 043°10'0 0.0
2019-Sep-19 16:59S 22°54' W 043°10'0 0.0
2019-Sep-19 16:29S 22°54' W 043°10'0 0.0
2019-Sep-19 15:59S 22°54' W 043°10'0 0.0
2019-Sep-19 15:29S 22°54' W 043°10'0 0.0
2019-Sep-19 14:59S 22°54' W 043°10'0 0.0
2019-Sep-19 14:29S 22°54' W 043°10'  
Track history (hours):
 
Tides and Currents Weather Stations Pressure Air Temp Water Temp Dewpoint Dewpoint Depression Visibility Wind Speed Wind Dir Waves Ship Positions

Oceanographic research ship Maximiano (Brazil)

Last reported at 2019-Sep-21 02:31 UTC. Time now 2019-Sep-21 05:19 UTC.
Position S 22°54' W 043°10'.

Type: Military. MMSI: 710481000.

Date/timePositionNaut miles runAvg speedWind from/ knotsBaromVisibWave heightAir tempDewpointWater temp
2019-Sep-21 02:31S 22°54' W 043°10'0 0.0
2019-Sep-21 02:31S 22°54' W 043°10'0 0.0
2019-Sep-21 02:01S 22°54' W 043°10'0 0.9
2019-Sep-21 01:31S 22°53' W 043°10'2 3.2
2019-Sep-21 01:01S 22°55' W 043°09'2 4.5
2019-Sep-21 00:31S 22°57' W 043°08'2 3.2
2019-Sep-21 00:00S 22°58' W 043°08'2 4.1
2019-Sep-20 23:31S 22°60' W 043°06'2 4.4
2019-Sep-20 23:01S 23°01' W 043°04'2 4.5
2019-Sep-20 22:31S 23°03' W 043°02'2 4.3
2019-Sep-20 22:01S 23°04' W 043°01'2 4.2
2019-Sep-20 21:27S 23°06' W 042°59'2 3.1
2019-Sep-20 20:57S 23°07' W 042°59'0 0.7
2019-Sep-20 20:30S 23°07' W 042°59'1 0.7
2019-Sep-20 19:42S 23°08' W 042°59'1 1.3
2019-Sep-20 19:15S 23°08' W 042°60'1 3.9
2019-Sep-20 19:00S 23°09' W 042°59'1 2.0
2019-Sep-20 18:30S 23°09' W 043°00'1 1.1
2019-Sep-20 18:00S 23°09' W 043°01'1 1.4
2019-Sep-20 17:29S 23°09' W 043°02'1 1.1
2019-Sep-20 17:00S 23°09' W 043°02'2 4.8
2019-Sep-20 16:30S 23°07' W 043°03'4 8.6
2019-Sep-20 16:00S 23°02' W 043°04'5 9.5
2019-Sep-20 15:30S 22°59' W 043°07'4 8.7
2019-Sep-20 15:00S 22°55' W 043°09'1 1.4
2019-Sep-20 14:30S 22°54' W 043°09'0 0.2
2019-Sep-20 14:00S 22°54' W 043°09'0 0.1
2019-Sep-20 13:30S 22°54' W 043°09'0 0.1
2019-Sep-20 13:00S 22°54' W 043°09'1 1.2
2019-Sep-20 12:30S 22°54' W 043°09'0 0.5
2019-Sep-20 12:00S 22°54' W 043°09'1 1.6
2019-Sep-20 11:30S 22°53' W 043°09'0 0.0
2019-Sep-20 11:00S 22°53' W 043°09'0 0.0
2019-Sep-20 10:30S 22°53' W 043°09'0 0.0
2019-Sep-20 10:00S 22°53' W 043°09'0 0.0
2019-Sep-20 09:30S 22°53' W 043°09'0 0.0
2019-Sep-20 09:00S 22°53' W 043°09'0 0.1
2019-Sep-20 08:30S 22°53' W 043°09'0 0.0
2019-Sep-20 08:00S 22°53' W 043°09'0 0.0
2019-Sep-20 07:30S 22°53' W 043°09'0 0.0
2019-Sep-20 07:00S 22°53' W 043°09'0 0.0
2019-Sep-20 06:30S 22°53' W 043°09'0 0.0
2019-Sep-20 06:00S 22°53' W 043°09'0 0.0
2019-Sep-20 05:27S 22°53' W 043°09'0 0.0
2019-Sep-20 05:00S 22°53' W 043°09'0 0.1
2019-Sep-20 04:30S 22°53' W 043°09'0 0.0
2019-Sep-20 04:00S 22°53' W 043°09'0 0.2
2019-Sep-20 03:30S 22°53' W 043°09'1 1.5
2019-Sep-20 03:00S 22°54' W 043°10'0 0.3
2019-Sep-20 02:30S 22°53' W 043°10'1 1.8
2019-Sep-20 02:00S 22°54' W 043°09'4 8.9
2019-Sep-20 01:30S 22°58' W 043°07'510.5
2019-Sep-20 01:00S 23°03' W 043°05'2 4.6
2019-Sep-20 00:30S 23°05' W 043°03'1 2.4
2019-Sep-20 00:00S 23°05' W 043°04'4 8.3
2019-Sep-19 23:30S 23°01' W 043°07'4 7.3
2019-Sep-19 23:00S 22°58' W 043°08'3 6.6
2019-Sep-19 22:30S 22°54' W 043°09'2 3.0
2019-Sep-19 22:00S 22°54' W 043°10'0 0.2
2019-Sep-19 21:29S 22°54' W 043°10'0 0.0
2019-Sep-19 20:59S 22°54' W 043°10'0 0.0
2019-Sep-19 20:29S 22°54' W 043°10'0 0.0
2019-Sep-19 19:59S 22°54' W 043°10'0 0.0
2019-Sep-19 19:29S 22°54' W 043°10'0 0.0
2019-Sep-19 18:59S 22°54' W 043°10'0 0.0
2019-Sep-19 18:29S 22°54' W 043°10'0 0.0
2019-Sep-19 17:59S 22°54' W 043°10'0 0.0
2019-Sep-19 17:29S 22°54' W 043°10'0 0.0
2019-Sep-19 16:59S 22°54' W 043°10'0 0.0
2019-Sep-19 16:29S 22°54' W 043°10'0 0.0
2019-Sep-19 15:59S 22°54' W 043°10'0 0.0
2019-Sep-19 15:29S 22°54' W 043°10'0 0.0
2019-Sep-19 14:59S 22°54' W 043°10'0 0.0
2019-Sep-19 14:29S 22°54' W 043°10'  

Dump ship's entire track history